Time;durP1;ratioP1;P1;durP2;ratioP2;P2;SDS_P1;SDS_P2;PMS_P1;PMS_P2;Temp;Humidity;BMP_temperature;BMP_pressure;BME280_temperature;BME280_humidity;BME280_pressure;Samples;Min_cycle;Max_cycle;Signal;HPM_P1;HPM_P2
2024/03/25 00:01:05;;;;;;;10.07;1.30;;;20.00;53.70;;;;;;4986988;28;20088;-73
2024/03/25 00:03:31;;;;;;;25.13;1.10;;;19.90;53.90;;;;;;5007930;28;20081;-60
2024/03/25 00:05:58;;;;;;;8.30;1.25;;;20.10;53.90;;;;;;5005661;28;20082;-69
2024/03/25 00:08:25;;;;;;;5.78;1.20;;;19.90;53.80;;;;;;4987022;28;20078;-65
2024/03/25 00:10:54;;;;;;;5.55;1.42;;;19.90;54.80;;;;;;4989105;28;20074;-68
2024/03/25 00:13:20;;;;;;;11.23;1.60;;;19.90;54.70;;;;;;4990220;28;20623;-65
2024/03/25 00:15:47;;;;;;;12.32;1.83;;;20.00;54.50;;;;;;5006893;28;20141;-65
2024/03/25 00:18:13;;;;;;;11.90;2.10;;;20.10;54.60;;;;;;5006401;28;20074;-66
2024/03/25 00:20:40;;;;;;;19.73;3.55;;;20.00;54.80;;;;;;5003597;28;20074;-62
2024/03/25 00:23:07;;;;;;;10.18;4.63;;;20.00;55.30;;;;;;5005228;28;20277;-61
2024/03/25 00:25:33;;;;;;;12.40;2.05;;;19.90;54.90;;;;;;5007442;28;20505;-62
2024/03/25 00:28:00;;;;;;;6.45;1.45;;;19.60;55.70;;;;;;5004568;28;20074;-61
2024/03/25 00:30:26;;;;;;;10.50;1.73;;;19.70;56.00;;;;;;5007381;28;20081;-62
2024/03/25 00:32:53;;;;;;;6.43;1.80;;;19.70;55.90;;;;;;5003595;28;20075;-64
2024/03/25 00:35:19;;;;;;;30.80;15.25;;;19.50;55.80;;;;;;4988050;28;20135;-68
2024/03/25 00:37:46;;;;;;;13.50;2.03;;;19.50;56.10;;;;;;5005718;28;20149;-63
2024/03/25 00:40:12;;;;;;;7.57;1.52;;;19.50;56.30;;;;;;5006379;28;20144;-64
2024/03/25 00:42:39;;;;;;;6.47;1.70;;;19.30;56.20;;;;;;5004159;28;20169;-64
2024/03/25 00:45:07;;;;;;;16.85;2.35;;;19.20;56.50;;;;;;5006596;28;20113;-61
2024/03/25 00:47:33;;;;;;;11.38;1.60;;;19.10;56.90;;;;;;5003904;28;20093;-63
2024/03/25 00:50:00;;;;;;;17.73;2.40;;;19.00;57.10;;;;;;5005859;28;20427;-63
2024/03/25 00:52:26;;;;;;;16.05;1.70;;;18.80;57.70;;;;;;5003191;28;20066;-64
2024/03/25 00:54:53;;;;;;;7.47;1.70;;;18.80;58.40;;;;;;5005503;28;20078;-62
2024/03/25 00:57:19;;;;;;;11.68;1.75;;;18.90;57.90;;;;;;5004736;28;20424;-63
2024/03/25 00:59:46;;;;;;;6.57;1.67;;;18.80;58.10;;;;;;5006047;28;20074;-61
2024/03/25 01:02:12;;;;;;;9.27;1.60;;;18.80;58.10;;;;;;5005968;28;20451;-64
2024/03/25 01:04:38;;;;;;;5.13;1.40;;;18.70;58.10;;;;;;5004575;28;20105;-64
2024/03/25 01:07:05;;;;;;;5.72;1.13;;;18.60;58.70;;;;;;5004420;28;20083;-62
2024/03/25 01:09:31;;;;;;;8.95;1.27;;;18.60;58.50;;;;;;5006619;28;20081;-61
2024/03/25 01:11:58;;;;;;;6.38;1.40;;;18.50;58.50;;;;;;5006466;28;20074;-60
2024/03/25 01:14:24;;;;;;;5.10;1.20;;;18.40;58.90;;;;;;4988647;28;20132;-65
2024/03/25 01:16:51;;;;;;;14.63;1.60;;;18.30;59.30;;;;;;5003886;28;20548;-62
2024/03/25 01:19:17;;;;;;;5.60;1.08;;;18.20;59.50;;;;;;5004869;28;20082;-64
2024/03/25 01:21:44;;;;;;;5.55;1.30;;;18.00;60.00;;;;;;4988451;28;20121;-61
2024/03/25 01:24:11;;;;;;;3.65;1.30;;;18.00;60.00;;;;;;5004924;28;20086;-62
2024/03/25 01:26:37;;;;;;;7.60;1.65;;;18.00;60.20;;;;;;5005067;28;20086;-65
2024/03/25 01:29:03;;;;;;;4.78;1.40;;;17.90;60.40;;;;;;4987321;28;20086;-61
2024/03/25 01:31:30;;;;;;;4.90;1.60;;;17.80;60.90;;;;;;5005958;28;20075;-63
2024/03/25 01:33:56;;;;;;;6.68;1.90;;;17.70;61.40;;;;;;5006156;28;20436;-63
2024/03/25 01:36:23;;;;;;;8.13;2.00;;;17.60;62.10;;;;;;5005898;28;20600;-63
2024/03/25 01:38:50;;;;;;;5.40;1.85;;;17.50;62.50;;;;;;5001871;28;20114;-62
2024/03/25 01:41:25;;;;;;;5.60;2.25;;;17.50;62.90;;;;;;5006457;28;20071;-62
2024/03/25 01:43:51;;;;;;;6.15;1.83;;;17.40;63.30;;;;;;5008731;28;20078;-61
2024/03/25 01:46:18;;;;;;;9.68;2.42;;;17.40;63.70;;;;;;5008121;28;20200;-63
2024/03/25 01:48:45;;;;;;;9.70;3.25;;;17.40;64.20;;;;;;5008719;28;20075;-65
2024/03/25 01:51:14;;;;;;;9.63;2.85;;;17.20;64.40;;;;;;5007660;28;20083;-56
2024/03/25 01:53:42;;;;;;;10.90;2.15;;;17.20;64.30;;;;;;5006193;28;20086;-54
2024/03/25 01:56:09;;;;;;;16.90;2.63;;;17.20;63.80;;;;;;5005467;28;20105;-58
2024/03/25 01:58:37;;;;;;;6.13;1.83;;;17.20;63.80;;;;;;5006232;28;20074;-52
2024/03/25 02:01:05;;;;;;;7.32;2.00;;;17.10;63.50;;;;;;5007148;28;20133;-48
2024/03/25 02:03:31;;;;;;;7.32;2.17;;;17.10;63.20;;;;;;5008352;28;20078;-50
2024/03/25 02:06:04;;;;;;;13.68;2.22;;;17.10;62.80;;;;;;5006544;28;20085;-48
2024/03/25 02:08:32;;;;;;;9.95;1.80;;;17.10;62.80;;;;;;5006150;28;20552;-51
2024/03/25 02:10:59;;;;;;;10.00;2.15;;;17.10;62.70;;;;;;5004476;28;20485;-52
2024/03/25 02:13:26;;;;;;;6.63;1.80;;;17.00;62.80;;;;;;5006928;28;20139;-47
2024/03/25 02:15:54;;;;;;;20.13;2.78;;;17.00;63.10;;;;;;5004185;28;20109;-57
2024/03/25 02:18:21;;;;;;;9.98;1.65;;;17.00;63.20;;;;;;5006718;28;20130;-51
2024/03/25 02:20:48;;;;;;;12.38;1.98;;;16.90;63.30;;;;;;5005731;28;20070;-51
2024/03/25 02:23:14;;;;;;;10.07;1.75;;;16.90;63.20;;;;;;5008480;28;20490;-51
2024/03/25 02:25:42;;;;;;;12.90;2.08;;;16.80;63.10;;;;;;5007688;28;20086;-51
2024/03/25 02:28:09;;;;;;;12.15;2.03;;;16.80;63.20;;;;;;5006373;28;20540;-48
2024/03/25 02:30:40;;;;;;;14.50;1.90;;;16.70;63.40;;;;;;5007943;28;20117;-50
2024/03/25 02:33:06;;;;;;;13.90;2.25;;;16.60;63.70;;;;;;5004284;28;20100;-56
2024/03/25 02:35:33;;;;;;;16.83;2.08;;;16.50;63.50;;;;;;5005916;28;20109;-54
2024/03/25 02:38:00;;;;;;;10.25;1.70;;;16.50;63.60;;;;;;5004503;28;20102;-59
2024/03/25 02:40:27;;;;;;;14.50;1.70;;;16.50;64.20;;;;;;5003557;28;20169;-52
2024/03/25 02:42:53;;;;;;;11.85;2.00;;;16.40;64.10;;;;;;5005936;28;20215;-49
2024/03/25 02:45:20;;;;;;;5.90;1.70;;;16.40;64.50;;;;;;5001854;28;20158;-55
2024/03/25 02:47:47;;;;;;;10.85;1.88;;;16.30;64.90;;;;;;5004845;28;20102;-47
2024/03/25 02:50:13;;;;;;;9.32;2.08;;;16.30;65.40;;;;;;5004546;28;20114;-52
2024/03/25 02:52:39;;;;;;;24.48;2.08;;;16.30;65.60;;;;;;5005962;28;20847;-47
2024/03/25 02:55:06;;;;;;;14.30;2.22;;;16.20;66.50;;;;;;5005537;28;20144;-47
2024/03/25 02:57:33;;;;;;;12.55;1.90;;;16.20;66.20;;;;;;5005323;28;20078;-49
2024/03/25 02:59:59;;;;;;;7.88;1.63;;;16.30;65.60;;;;;;5005548;28;20465;-48
2024/03/25 03:02:25;;;;;;;8.95;1.80;;;16.30;65.50;;;;;;5006058;28;20078;-50
2024/03/25 03:04:52;;;;;;;6.75;1.50;;;16.30;65.60;;;;;;5006393;28;20478;-51
2024/03/25 03:07:18;;;;;;;6.22;2.10;;;16.30;66.30;;;;;;5005631;28;20078;-48
2024/03/25 03:09:45;;;;;;;11.15;1.90;;;16.20;66.60;;;;;;5005953;28;20109;-48
2024/03/25 03:12:12;;;;;;;9.27;1.45;;;16.20;66.60;;;;;;5006825;28;20120;-50
2024/03/25 03:14:38;;;;;;;7.28;1.30;;;16.20;66.30;;;;;;5003705;28;20074;-55
2024/03/25 03:17:05;;;;;;;5.63;1.35;;;16.10;66.30;;;;;;5004748;28;20117;-49
2024/03/25 03:19:32;;;;;;;14.98;1.52;;;16.10;66.20;;;;;;5005976;28;20079;-51
2024/03/25 03:21:58;;;;;;;10.38;1.38;;;16.10;65.80;;;;;;5004982;28;20098;-47
2024/03/25 03:24:25;;;;;;;8.85;1.70;;;16.00;65.50;;;;;;5006871;28;20119;-49
2024/03/25 03:26:51;;;;;;;7.82;1.52;;;16.10;65.70;;;;;;5004600;28;20082;-53
2024/03/25 03:29:18;;;;;;;9.70;1.73;;;16.10;65.70;;;;;;5006027;28;20451;-49
2024/03/25 03:31:44;;;;;;;8.80;1.55;;;16.10;65.70;;;;;;5005508;28;20086;-52
2024/03/25 03:34:11;;;;;;;7.07;2.03;;;16.10;65.70;;;;;;5006031;28;20129;-46
2024/03/25 03:36:37;;;;;;;11.30;1.75;;;16.00;65.60;;;;;;5006325;28;20098;-49
2024/03/25 03:39:03;;;;;;;13.98;1.73;;;16.00;65.90;;;;;;5001750;28;20118;-51
2024/03/25 03:41:30;;;;;;;5.30;1.38;;;16.10;66.40;;;;;;5005986;28;20082;-55
2024/03/25 03:43:56;;;;;;;7.13;1.20;;;16.10;65.50;;;;;;5006180;28;20093;-47
2024/03/25 03:46:23;;;;;;;6.72;1.30;;;16.10;65.50;;;;;;5006070;28;20074;-46
2024/03/25 03:48:49;;;;;;;12.30;2.03;;;16.00;65.70;;;;;;5004793;28;20540;-49
2024/03/25 03:51:16;;;;;;;11.32;1.90;;;16.00;66.10;;;;;;4989698;28;20128;-56
2024/03/25 03:53:42;;;;;;;12.60;2.53;;;16.00;66.50;;;;;;5005830;28;20164;-57
2024/03/25 03:56:09;;;;;;;17.40;2.97;;;16.00;67.00;;;;;;5004707;28;20189;-59
2024/03/25 03:58:35;;;;;;;19.05;2.80;;;16.00;67.40;;;;;;5005635;28;20090;-48
2024/03/25 04:01:04;;;;;;;20.40;2.83;;;16.00;67.70;;;;;;5005745;28;20081;-54
2024/03/25 04:03:30;;;;;;;15.20;2.60;;;15.90;68.00;;;;;;5002365;28;20074;-52
2024/03/25 04:05:57;;;;;;;11.90;1.98;;;15.90;68.50;;;;;;5005914;28;20112;-51
2024/03/25 04:08:23;;;;;;;15.52;2.22;;;15.80;68.90;;;;;;5005852;28;20106;-48
2024/03/25 04:10:50;;;;;;;11.05;2.22;;;15.80;69.10;;;;;;5005748;28;20549;-51
2024/03/25 04:13:16;;;;;;;8.40;2.60;;;15.80;69.00;;;;;;5005691;28;20166;-52
2024/03/25 04:15:43;;;;;;;12.13;2.50;;;15.80;69.00;;;;;;5004730;28;20135;-52
2024/03/25 04:18:11;;;;;;;11.05;2.03;;;15.80;68.90;;;;;;5004158;28;20074;-52
2024/03/25 04:20:41;;;;;;;7.57;1.65;;;15.80;68.60;;;;;;5004189;28;20074;-51
2024/03/25 04:23:08;;;;;;;10.13;1.85;;;15.70;68.10;;;;;;5003686;28;20137;-51
2024/03/25 04:25:37;;;;;;;15.00;3.70;;;15.70;67.70;;;;;;4981294;28;20101;-55
2024/03/25 04:28:05;;;;;;;8.30;1.80;;;15.70;67.00;;;;;;5004403;28;20600;-53
2024/03/25 04:30:33;;;;;;;10.50;1.77;;;15.70;66.70;;;;;;5005792;28;20078;-51
2024/03/25 04:33:00;;;;;;;10.27;1.48;;;15.70;66.10;;;;;;5007749;28;20157;-50
2024/03/25 04:35:26;;;;;;;11.98;2.08;;;15.60;66.20;;;;;;5007249;28;20102;-51
2024/03/25 04:37:55;;;;;;;8.57;1.38;;;15.60;66.50;;;;;;5006297;28;20118;-48
2024/03/25 04:40:22;;;;;;;11.63;1.80;;;15.60;66.80;;;;;;5006232;28;20083;-48
2024/03/25 04:42:48;;;;;;;8.40;2.25;;;15.60;66.90;;;;;;5006426;28;20145;-47
2024/03/25 04:45:15;;;;;;;5.13;1.75;;;15.50;67.00;;;;;;5006734;28;20073;-52
2024/03/25 04:47:42;;;;;;;11.70;1.65;;;15.50;67.00;;;;;;5005977;28;20100;-50
2024/03/25 04:50:09;;;;;;;8.70;1.60;;;15.50;66.90;;;;;;5007345;28;20411;-50
2024/03/25 04:52:35;;;;;;;18.02;2.15;;;15.50;66.70;;;;;;5004048;28;20071;-51
2024/03/25 04:55:02;;;;;;;7.13;1.67;;;15.40;66.60;;;;;;5006619;28;20532;-52
2024/03/25 04:57:29;;;;;;;7.70;2.30;;;15.40;66.40;;;;;;5006405;28;20093;-56
2024/03/25 04:59:55;;;;;;;7.30;1.25;;;15.40;66.30;;;;;;5007079;28;20081;-59
2024/03/25 05:02:21;;;;;;;7.10;1.60;;;15.40;66.20;;;;;;4989336;28;20085;-49
2024/03/25 05:04:48;;;;;;;7.07;1.20;;;15.40;65.90;;;;;;5007526;28;20521;-49
2024/03/25 05:07:14;;;;;;;4.70;1.33;;;15.50;65.70;;;;;;5007152;28;20071;-51
2024/03/25 05:09:41;;;;;;;3.90;1.10;;;15.40;65.60;;;;;;5006916;28;20070;-55
2024/03/25 05:12:07;;;;;;;3.70;0.80;;;15.40;65.50;;;;;;5006172;28;20074;-49
2024/03/25 05:14:34;;;;;;;5.18;0.80;;;15.40;65.60;;;;;;5008200;28;20077;-48
2024/03/25 05:17:02;;;;;;;5.07;1.00;;;15.40;65.60;;;;;;4993060;28;20474;-58
2024/03/25 05:19:28;;;;;;;2.55;0.90;;;15.40;65.60;;;;;;5009324;28;20483;-49
2024/03/25 05:21:55;;;;;;;2.38;1.00;;;15.30;65.40;;;;;;4992373;28;20082;-55
2024/03/25 05:24:21;;;;;;;3.25;1.00;;;15.40;65.70;;;;;;4992219;28;20452;-47
2024/03/25 05:26:47;;;;;;;1.98;0.90;;;15.40;65.50;;;;;;5008323;28;20071;-48
2024/03/25 05:29:14;;;;;;;22.45;1.67;;;15.30;65.60;;;;;;5010257;28;20501;-48
2024/03/25 05:31:59;;;;;;;3.35;0.80;;;15.30;65.80;;;;;;5009796;28;20074;-48
2024/03/25 05:34:27;;;;;;;3.47;0.70;;;15.40;65.40;;;;;;5009163;28;20128;-50
2024/03/25 05:36:53;;;;;;;6.57;0.88;;;15.50;65.40;;;;;;5007463;28;20160;-50
2024/03/25 05:39:20;;;;;;;6.47;0.90;;;15.50;64.90;;;;;;5008389;28;20193;-55
2024/03/25 05:41:47;;;;;;;4.72;1.10;;;15.60;64.80;;;;;;4991335;28;20070;-48
2024/03/25 05:44:14;;;;;;;2.50;1.30;;;15.60;64.70;;;;;;5009902;28;20083;-48
2024/03/25 05:46:41;;;;;;;8.60;3.03;;;15.60;64.70;;;;;;5010006;28;20440;-54
2024/03/25 05:49:07;;;;;;;4.90;2.03;;;15.50;64.40;;;;;;5009459;28;20161;-50
2024/03/25 05:51:34;;;;;;;2.80;1.20;;;15.50;64.60;;;;;;5009939;28;20075;-52
2024/03/25 05:54:00;;;;;;;4.30;0.70;;;15.50;64.70;;;;;;5009887;28;20443;-50
2024/03/25 05:56:30;;;;;;;2.55;0.93;;;15.50;64.90;;;;;;5008539;28;20130;-49
2024/03/25 05:59:01;;;;;;;2.67;1.00;;;15.40;65.40;;;;;;5010115;28;20074;-48
2024/03/25 06:01:27;;;;;;;4.47;1.70;;;15.40;65.40;;;;;;5010281;28;20078;-49
2024/03/25 06:03:54;;;;;;;7.25;2.63;;;15.30;65.70;;;;;;5010062;28;20084;-52
2024/03/25 06:06:20;;;;;;;17.00;6.07;;;15.40;65.70;;;;;;5009487;28;20093;-56
2024/03/25 06:08:47;;;;;;;21.33;12.00;;;15.40;65.40;;;;;;5009915;28;20081;-53
2024/03/25 06:11:13;;;;;;;48.88;26.02;;;15.50;65.30;;;;;;5008511;28;20504;-53
2024/03/25 06:13:40;;;;;;;84.97;48.28;;;15.70;65.10;;;;;;5009410;28;20093;-51
2024/03/25 06:16:06;;;;;;;65.75;36.35;;;15.70;64.50;;;;;;5010284;28;20098;-55
2024/03/25 06:18:33;;;;;;;65.97;36.03;;;15.70;64.60;;;;;;5008762;28;20071;-49
2024/03/25 06:20:59;;;;;;;61.03;33.05;;;15.70;64.60;;;;;;4991014;28;20075;-52
2024/03/25 06:23:29;;;;;;;54.75;29.55;;;15.50;64.70;;;;;;5009223;28;20252;-50
2024/03/25 06:25:56;;;;;;;56.83;27.02;;;15.40;64.90;;;;;;5007776;28;20168;-50
2024/03/25 06:28:23;;;;;;;44.63;24.98;;;15.50;65.10;;;;;;5009457;28;20152;-51
2024/03/25 06:36:22;;;;;;;18.92;8.73;;;15.40;64.80;;;;;;5007853;28;20121;-51
2024/03/25 06:38:49;;;;;;;15.98;6.55;;;15.40;64.90;;;;;;5006989;28;20124;-52
2024/03/25 06:41:15;;;;;;;12.43;4.57;;;15.30;65.30;;;;;;5008598;28;20110;-57
2024/03/25 06:43:41;;;;;;;6.63;2.97;;;15.30;65.20;;;;;;5007580;28;20479;-47
2024/03/25 06:46:08;;;;;;;8.23;2.20;;;15.40;65.30;;;;;;5008786;28;20424;-50
2024/03/25 06:48:35;;;;;;;6.40;1.85;;;15.30;65.30;;;;;;5009021;28;20079;-47
2024/03/25 06:51:04;;;;;;;5.57;1.80;;;15.20;65.60;;;;;;5007519;28;20634;-47
2024/03/25 06:53:31;;;;;;;10.38;1.85;;;15.20;65.80;;;;;;4992138;28;20552;-47
2024/03/25 06:56:01;;;;;;;6.97;1.60;;;15.10;66.20;;;;;;5008026;28;20138;-50
2024/03/25 06:58:28;;;;;;;5.15;1.83;;;15.10;66.30;;;;;;5008265;28;20161;-50
2024/03/25 07:00:56;;;;;;;5.50;1.77;;;15.10;66.50;;;;;;5007198;28;20078;-48
2024/03/25 07:03:23;;;;;;;6.05;1.88;;;15.10;67.30;;;;;;4990885;28;20125;-50
2024/03/25 07:05:52;;;;;;;7.28;2.40;;;15.10;66.80;;;;;;5007596;28;20125;-53
2024/03/25 07:08:21;;;;;;;7.88;1.90;;;15.10;67.20;;;;;;5008287;28;20093;-51
2024/03/25 07:10:48;;;;;;;4.90;1.73;;;15.10;67.10;;;;;;5008572;28;20110;-51
2024/03/25 07:13:15;;;;;;;6.30;1.52;;;15.10;67.30;;;;;;5007769;28;20157;-54
2024/03/25 07:15:43;;;;;;;6.22;1.50;;;15.10;67.50;;;;;;5008913;28;20219;-54
2024/03/25 07:18:12;;;;;;;3.88;1.58;;;15.10;67.70;;;;;;5008183;28;20078;-53
2024/03/25 07:20:43;;;;;;;2.00;1.40;;;15.00;67.80;;;;;;5007761;28;20168;-48
2024/03/25 07:23:10;;;;;;;6.93;1.58;;;15.00;67.80;;;;;;5006984;28;20170;-51
2024/03/25 07:25:37;;;;;;;5.68;1.50;;;14.90;67.90;;;;;;5008511;28;20082;-48
2024/03/25 07:28:04;;;;;;;2.22;1.23;;;14.90;68.10;;;;;;5008668;28;20078;-53
2024/03/25 07:30:30;;;;;;;3.72;1.40;;;14.90;68.30;;;;;;5006642;28;20070;-51
2024/03/25 07:32:58;;;;;;;10.73;1.30;;;14.90;68.10;;;;;;5007768;28;20070;-48
2024/03/25 07:35:25;;;;;;;4.10;1.50;;;14.90;68.10;;;;;;5007350;28;20066;-53
2024/03/25 07:37:52;;;;;;;3.38;1.35;;;14.80;68.10;;;;;;5006780;28;20487;-52
2024/03/25 07:40:19;;;;;;;3.63;1.50;;;14.80;68.20;;;;;;5007083;28;20071;-54
2024/03/25 07:42:46;;;;;;;2.30;1.30;;;14.70;68.40;;;;;;5006228;28;20562;-49
2024/03/25 07:45:12;;;;;;;5.63;1.65;;;14.70;68.50;;;;;;4988787;28;20078;-47
2024/03/25 07:47:39;;;;;;;4.75;1.38;;;14.70;68.70;;;;;;4989675;28;20500;-47
2024/03/25 07:50:06;;;;;;;5.70;1.50;;;14.60;68.80;;;;;;5007082;28;20078;-48
2024/03/25 07:52:32;;;;;;;2.30;1.40;;;14.60;68.90;;;;;;5005952;28;20078;-51
2024/03/25 07:54:59;;;;;;;4.72;1.55;;;14.60;68.80;;;;;;5008221;28;20074;-49
2024/03/25 07:57:25;;;;;;;2.63;1.17;;;14.60;68.80;;;;;;5007157;28;20571;-48
2024/03/25 07:59:52;;;;;;;4.65;1.58;;;14.60;68.80;;;;;;5007391;28;20071;-52
2024/03/25 08:02:18;;;;;;;5.00;1.70;;;14.60;68.80;;;;;;5007664;28;20594;-48
2024/03/25 08:04:44;;;;;;;3.22;1.50;;;14.60;68.80;;;;;;5007446;28;20074;-50
2024/03/25 08:07:11;;;;;;;4.10;1.52;;;14.60;68.80;;;;;;5006971;28;20081;-48
2024/03/25 08:09:37;;;;;;;5.68;1.70;;;14.60;68.90;;;;;;5007750;28;20085;-47
2024/03/25 08:12:04;;;;;;;9.57;1.40;;;14.70;68.60;;;;;;5005171;28;20093;-52
2024/03/25 08:14:31;;;;;;;3.05;1.50;;;14.70;68.10;;;;;;4989552;28;20074;-47
2024/03/25 08:16:57;;;;;;;6.85;1.48;;;14.70;68.00;;;;;;5006853;28;20563;-47
2024/03/25 08:19:25;;;;;;;2.90;1.58;;;14.80;68.20;;;;;;5006057;28;20129;-50
2024/03/25 08:21:51;;;;;;;8.73;1.73;;;14.80;68.10;;;;;;5007137;28;20078;-48
2024/03/25 08:24:17;;;;;;;4.35;1.50;;;14.80;68.10;;;;;;5007094;28;20086;-48
2024/03/25 08:26:44;;;;;;;6.75;1.83;;;14.80;67.90;;;;;;5006215;28;20185;-50
2024/03/25 08:29:10;;;;;;;10.27;1.30;;;14.80;67.70;;;;;;5005717;28;20166;-49
2024/03/25 08:31:37;;;;;;;5.03;1.30;;;14.90;67.50;;;;;;5007307;28;20599;-49
2024/03/25 08:34:03;;;;;;;3.90;1.50;;;15.00;67.30;;;;;;5007584;28;20120;-53
2024/03/25 08:36:29;;;;;;;;;;;14.90;67.50;;;;;;5006428;28;20146;-52
2024/03/25 08:38:56;;;;;;;4.32;1.20;;;15.00;67.70;;;;;;5005230;28;20106;-49
2024/03/25 08:41:22;;;;;;;8.38;1.80;;;14.80;67.60;;;;;;5006746;28;20833;-51
2024/03/25 08:43:48;;;;;;;6.60;1.67;;;14.80;67.70;;;;;;5007025;28;20433;-49
2024/03/25 08:46:15;;;;;;;7.97;1.58;;;14.80;67.70;;;;;;5006454;28;20157;-48
2024/03/25 08:48:42;;;;;;;7.03;1.63;;;14.70;67.70;;;;;;5008958;28;20125;-50
2024/03/25 08:51:08;;;;;;;5.03;1.83;;;14.70;67.90;;;;;;5010186;28;20082;-50
2024/03/25 08:53:35;;;;;;;3.33;1.58;;;14.70;68.10;;;;;;5009329;28;20082;-53
2024/03/25 08:56:01;;;;;;;;;;;14.60;68.20;;;;;;5010176;28;20125;-51
2024/03/25 08:58:27;;;;;;;9.35;2.17;;;14.60;68.40;;;;;;5011501;28;19957;-50
2024/03/25 09:00:53;;;;;;;;;;;14.50;68.40;;;;;;5009776;28;20093;-49
2024/03/25 09:03:19;;;;;;;5.40;1.40;;;14.50;69.20;;;;;;5011130;28;19958;-55
2024/03/25 09:05:47;;;;;;;5.68;1.60;;;14.50;68.80;;;;;;5010229;28;20097;-51
2024/03/25 09:08:14;;;;;;;6.82;1.92;;;14.50;68.70;;;;;;5010828;28;20194;-51
2024/03/25 09:13:29;;;;;;;5.90;1.80;;;14.50;69.00;;;;;;5009208;28;20136;-55
2024/03/25 09:15:56;;;;;;;15.70;1.60;;;14.50;68.90;;;;;;5010200;28;20243;-57
2024/03/25 09:18:23;;;;;;;5.70;1.58;;;14.40;69.00;;;;;;5009570;28;20098;-55
2024/03/25 09:20:50;;;;;;;5.38;1.58;;;14.40;69.00;;;;;;5010570;28;20235;-54
2024/03/25 09:23:16;;;;;;;8.27;1.85;;;14.40;69.30;;;;;;5009784;28;20078;-52
2024/03/25 09:25:52;;;;;;;;;;;14.50;69.70;;;;;;5009679;28;20077;-52
2024/03/25 09:28:18;;;;;;;8.10;1.63;;;14.40;69.50;;;;;;5010772;28;20280;-52
2024/03/25 09:30:45;;;;;;;8.50;1.90;;;14.40;69.80;;;;;;5008842;28;20079;-48
2024/03/25 09:33:11;;;;;;;5.05;1.63;;;14.30;69.60;;;;;;5010329;28;20074;-46
2024/03/25 09:35:37;;;;;;;;;;;14.30;70.00;;;;;;5010189;28;20104;-49
2024/03/25 09:38:04;;;;;;;8.65;2.38;;;14.30;69.70;;;;;;4992659;28;19985;-48
2024/03/25 09:40:30;;;;;;;6.63;2.00;;;14.30;69.80;;;;;;5008698;28;20074;-51
2024/03/25 09:42:57;;;;;;;9.25;2.38;;;14.20;69.70;;;;;;5010504;28;20421;-49
2024/03/25 09:45:29;;;;;;;14.32;2.42;;;14.20;70.10;;;;;;5009598;28;20177;-50
2024/03/25 09:47:56;;;;;;;9.32;2.30;;;14.20;69.90;;;;;;5008761;28;20082;-54
2024/03/25 09:50:23;;;;;;;14.65;2.60;;;14.20;69.60;;;;;;5009569;28;20070;-49
2024/03/25 09:52:50;;;;;;;13.02;4.97;;;14.20;69.40;;;;;;5010213;28;20074;-47
2024/03/25 09:55:17;;;;;;;10.65;4.20;;;14.30;69.20;;;;;;5009240;28;20074;-50
2024/03/25 09:57:44;;;;;;;12.68;4.05;;;14.30;68.90;;;;;;5007774;28;20110;-48
2024/03/25 10:00:11;;;;;;;15.30;6.88;;;14.30;68.60;;;;;;5008647;28;20125;-54
2024/03/25 10:02:41;;;;;;;16.27;7.47;;;14.30;68.70;;;;;;5007405;28;20105;-50
2024/03/25 10:05:08;;;;;;;13.27;6.25;;;14.30;68.70;;;;;;5009546;28;20881;-47
2024/03/25 10:07:35;;;;;;;9.25;4.53;;;14.30;68.90;;;;;;4991911;28;20071;-48
2024/03/25 10:10:06;;;;;;;13.48;3.90;;;14.20;69.00;;;;;;5010110;28;20090;-55
2024/03/25 10:12:33;;;;;;;10.18;3.28;;;14.20;68.60;;;;;;4991535;28;20101;-58
2024/03/25 10:15:00;;;;;;;7.03;2.88;;;14.20;69.20;;;;;;5010022;28;20078;-51
2024/03/25 10:17:26;;;;;;;7.15;2.80;;;14.10;69.30;;;;;;4990627;28;20160;-51
2024/03/25 10:19:55;;;;;;;6.63;2.58;;;14.10;69.70;;;;;;5009591;28;20086;-52
2024/03/25 10:22:22;;;;;;;8.68;2.10;;;14.00;69.80;;;;;;5007989;28;20097;-48
2024/03/25 10:24:48;;;;;;;5.07;1.95;;;14.00;70.20;;;;;;5009295;28;20481;-47
2024/03/25 10:27:20;;;;;;;5.63;2.03;;;13.90;70.20;;;;;;5009926;28;20075;-47
2024/03/25 10:29:55;;;;;;;4.10;1.95;;;13.90;70.50;;;;;;5007295;28;20078;-48
2024/03/25 10:32:28;;;;;;;5.22;2.10;;;13.90;70.70;;;;;;5007405;28;20598;-50
2024/03/25 10:34:55;;;;;;;7.50;2.00;;;13.90;70.70;;;;;;5009109;28;20082;-49
2024/03/25 10:37:25;;;;;;;3.72;1.63;;;13.80;70.80;;;;;;4989367;28;20110;-54
2024/03/25 10:39:57;;;;;;;8.45;1.60;;;13.80;71.00;;;;;;5008988;28;20074;-49
2024/03/25 10:42:24;;;;;;;4.28;1.40;;;13.80;71.30;;;;;;5007886;28;20102;-51
2024/03/25 10:44:52;;;;;;;6.22;1.73;;;13.80;71.40;;;;;;5007578;28;20146;-47
2024/03/25 10:47:28;;;;;;;5.03;1.63;;;13.70;71.60;;;;;;5008710;28;20078;-47
2024/03/25 10:49:59;;;;;;;6.33;1.73;;;13.70;71.70;;;;;;5006097;28;20200;-49
2024/03/25 10:52:29;;;;;;;5.70;1.90;;;13.60;71.80;;;;;;5007406;28;20146;-47
2024/03/25 10:54:56;;;;;;;21.38;11.25;;;13.60;72.10;;;;;;5007207;28;20105;-47
2024/03/25 10:57:23;;;;;;;3.75;1.77;;;13.60;72.10;;;;;;5008570;28;20108;-47
2024/03/25 10:59:50;;;;;;;6.13;1.90;;;13.60;71.80;;;;;;5008859;28;20124;-50
2024/03/25 11:02:20;;;;;;;4.35;1.98;;;13.50;72.00;;;;;;5008357;28;20077;-48
2024/03/25 11:04:49;;;;;;;5.82;1.95;;;13.50;72.00;;;;;;5008690;28;20086;-48
2024/03/25 11:07:16;;;;;;;5.00;1.80;;;13.50;72.00;;;;;;4991499;28;20083;-47
2024/03/25 11:09:43;;;;;;;4.53;1.70;;;13.50;71.90;;;;;;5007443;28;20075;-49
2024/03/25 11:12:13;;;;;;;6.00;1.65;;;13.50;71.90;;;;;;5007099;28;20124;-51
2024/03/25 11:14:41;;;;;;;3.53;1.45;;;13.50;72.00;;;;;;5007786;28;20102;-49
2024/03/25 11:17:16;;;;;;;6.03;1.60;;;13.40;72.10;;;;;;5003642;28;20098;-47
2024/03/25 11:19:43;;;;;;;3.50;1.58;;;13.50;72.30;;;;;;5008025;28;20082;-52
2024/03/25 11:22:11;;;;;;;3.25;1.20;;;13.50;73.10;;;;;;5007454;28;20088;-51
2024/03/25 11:24:43;;;;;;;5.30;1.35;;;13.40;72.40;;;;;;5007356;28;20557;-47
2024/03/25 11:27:09;;;;;;;4.65;1.40;;;13.50;72.40;;;;;;5005769;28;20157;-47
2024/03/25 11:29:36;;;;;;;5.18;1.30;;;13.40;72.90;;;;;;5007312;28;20078;-48
2024/03/25 11:32:04;;;;;;;3.58;1.40;;;13.40;72.40;;;;;;5008149;28;20154;-48
2024/03/25 11:34:31;;;;;;;5.32;1.42;;;13.40;72.30;;;;;;5008159;28;20076;-52
2024/03/25 11:36:58;;;;;;;6.68;1.17;;;13.40;72.50;;;;;;4972183;28;20134;-49
2024/03/25 11:39:32;;;;;;;5.05;1.20;;;13.40;72.60;;;;;;5008277;28;20550;-47
2024/03/25 11:41:58;;;;;;;4.38;1.42;;;13.40;72.70;;;;;;5008146;28;20079;-50
2024/03/25 11:44:25;;;;;;;5.95;1.50;;;13.40;72.40;;;;;;5007321;28;20070;-51
2024/03/25 11:46:55;;;;;;;4.60;1.33;;;13.40;72.40;;;;;;5008990;28;20182;-48
2024/03/25 11:49:21;;;;;;;4.05;1.20;;;13.40;72.40;;;;;;5006508;28;20520;-47
2024/03/25 11:51:48;;;;;;;7.45;1.38;;;13.40;72.20;;;;;;5007747;28;20085;-47
2024/03/25 11:54:15;;;;;;;;;;;13.40;72.00;;;;;;5007941;28;20423;-54
2024/03/25 11:56:43;;;;;;;5.18;1.27;;;13.40;72.10;;;;;;5006319;28;20455;-47
2024/03/25 11:59:12;;;;;;;4.38;1.35;;;13.50;72.10;;;;;;5007394;28;20089;-48
2024/03/25 12:01:39;;;;;;;3.25;1.20;;;13.40;71.90;;;;;;5008378;28;20067;-49
2024/03/25 12:04:15;;;;;;;4.68;1.10;;;13.50;71.80;;;;;;4989984;28;20564;-49
2024/03/25 12:06:42;;;;;;;3.30;1.10;;;13.50;71.60;;;;;;4983719;28;20165;-48
2024/03/25 12:11:55;;;;;;;2.80;1.13;;;13.50;71.70;;;;;;5006980;28;20445;-56
2024/03/25 12:14:27;;;;;;;3.80;1.20;;;13.50;72.00;;;;;;5006570;28;20082;-53
2024/03/25 12:16:54;;;;;;;4.30;1.40;;;13.50;72.20;;;;;;5005539;28;20130;-51
2024/03/25 12:19:20;;;;;;;7.65;1.23;;;13.40;72.10;;;;;;5007655;28;20083;-58
2024/03/25 12:21:48;;;;;;;10.65;1.52;;;13.40;72.30;;;;;;5007246;28;20798;-48
2024/03/25 12:24:15;;;;;;;4.32;1.40;;;13.40;72.70;;;;;;5006817;28;20085;-51
2024/03/25 12:26:41;;;;;;;3.40;1.10;;;13.40;73.30;;;;;;4990595;28;21492;-52
2024/03/25 12:29:08;;;;;;;5.60;1.30;;;13.40;73.50;;;;;;5008113;28;20071;-48
2024/03/25 12:31:34;;;;;;;8.90;1.30;;;13.30;74.00;;;;;;5007682;28;20071;-55
2024/03/25 12:34:00;;;;;;;;;;;13.20;74.70;;;;;;5007230;28;20086;-51
2024/03/25 12:36:30;;;;;;;7.75;1.42;;;13.10;75.70;;;;;;5004838;28;19982;-49
2024/03/25 12:38:57;;;;;;;5.05;1.73;;;13.00;76.60;;;;;;5006934;28;20149;-47
2024/03/25 12:41:24;;;;;;;12.07;1.67;;;13.00;77.30;;;;;;5006820;28;20086;-47
2024/03/25 12:43:51;;;;;;;7.93;1.50;;;12.90;77.50;;;;;;5007765;28;20082;-50
2024/03/25 12:46:18;;;;;;;4.45;1.48;;;12.80;78.10;;;;;;5008153;28;20071;-51
2024/03/25 12:48:45;;;;;;;8.32;1.60;;;12.80;78.50;;;;;;5007005;28;20094;-50
2024/03/25 12:51:15;;;;;;;5.65;1.23;;;12.70;78.80;;;;;;5005132;28;20161;-51
2024/03/25 12:53:42;;;;;;;10.95;1.77;;;12.70;79.10;;;;;;5007012;28;20583;-49
2024/03/25 12:56:08;;;;;;;5.50;1.60;;;12.70;79.30;;;;;;4988244;28;20470;-50